Time;durP1;ratioP1;P1;durP2;ratioP2;P2;SDS_P1;SDS_P2;PMS_P1;PMS_P2;Temp;Humidity;BMP_temperature;BMP_pressure;BME280_temperature;BME280_humidity;BME280_pressure;Samples;Min_cycle;Max_cycle;Signal;HPM_P1;HPM_P2
2022/10/30 00:00:18;;;;;;;54.18;47.40;;;23.50;96.20;;;;;;1888601;74;21599;-84
2022/10/30 00:02:49;;;;;;;59.08;47.48;;;23.50;96.20;;;;;;1885352;76;21068;-83
2022/10/30 00:05:20;;;;;;;60.17;46.68;;;23.60;96.20;;;;;;1871834;76;21123;-82
2022/10/30 00:07:51;;;;;;;61.08;48.35;;;23.60;96.20;;;;;;1890139;75;21072;-82
2022/10/30 00:10:22;;;;;;;59.58;47.10;;;23.70;96.00;;;;;;1870819;76;21618;-82
2022/10/30 00:12:53;;;;;;;54.93;47.08;;;23.60;96.00;;;;;;1886325;76;21197;-84
2022/10/30 00:15:24;;;;;;;58.55;45.43;;;23.70;96.30;;;;;;1876998;75;21167;-83
2022/10/30 00:17:55;;;;;;;58.38;45.15;;;23.80;95.80;;;;;;1881816;76;21135;-83
2022/10/30 00:20:26;;;;;;;55.40;45.43;;;23.90;95.60;;;;;;1876957;76;21287;-84
2022/10/30 00:22:57;;;;;;;54.80;43.68;;;23.90;95.30;;;;;;1879009;76;21115;-83
2022/10/30 00:25:29;;;;;;;56.28;43.42;;;23.90;95.00;;;;;;1882326;76;21086;-83
2022/10/30 00:28:01;;;;;;;54.00;44.30;;;24.10;94.90;;;;;;1888417;76;21178;-82
2022/10/30 00:30:34;;;;;;;53.30;42.43;;;24.10;94.70;;;;;;1882327;74;21127;-81
2022/10/30 00:33:07;;;;;;;49.35;41.68;;;24.20;94.30;;;;;;1890367;76;21103;-83
2022/10/30 00:35:39;;;;;;;48.73;41.73;;;24.40;94.10;;;;;;1870726;76;21169;-81
2022/10/30 00:38:10;;;;;;;48.63;40.98;;;24.40;93.90;;;;;;1866812;76;21143;-82
2022/10/30 00:40:40;;;;;;;51.20;41.68;;;24.40;93.60;;;;;;1877568;76;21134;-81
2022/10/30 00:43:37;;;;;;;48.87;38.90;;;24.50;93.40;;;;;;1882569;76;21127;-83
2022/10/30 00:46:41;;;;;;;46.42;38.85;;;24.60;93.30;;;;;;1863667;76;21204;-82
2022/10/30 00:49:14;;;;;;;51.18;41.45;;;24.80;93.00;;;;;;1876149;75;21621;-82
2022/10/30 00:51:49;;;;;;;47.33;39.18;;;24.80;92.60;;;;;;1882383;76;21232;-83
2022/10/30 00:54:22;;;;;;;48.95;41.10;;;24.90;92.30;;;;;;1876864;74;21118;-82
2022/10/30 00:56:55;;;;;;;47.73;39.78;;;25.00;92.00;;;;;;1887785;74;21155;-82
2022/10/30 00:59:28;;;;;;;46.85;40.60;;;25.00;92.00;;;;;;1906373;73;21559;-84
2022/10/30 01:02:08;;;;;;;51.33;39.50;;;25.00;91.90;;;;;;1849230;77;21190;-82
2022/10/30 01:04:39;;;;;;;47.93;40.15;;;25.10;91.60;;;;;;1854787;75;21244;-82
2022/10/30 01:07:15;;;;;;;42.17;37.50;;;25.20;91.20;;;;;;1870057;75;21100;-82
2022/10/30 01:09:47;;;;;;;43.75;38.00;;;25.20;91.20;;;;;;1865943;76;21111;-83
2022/10/30 01:12:19;;;;;;;49.63;40.90;;;25.30;91.10;;;;;;1892709;74;21125;-82
2022/10/30 01:14:55;;;;;;;44.38;37.30;;;25.30;91.10;;;;;;1899843;75;21214;-82
2022/10/30 01:17:43;;;;;;;47.62;40.33;;;25.40;91.00;;;;;;1855734;77;21630;-82
2022/10/30 01:20:35;;;;;;;47.30;39.53;;;25.50;91.00;;;;;;1848316;75;21702;-81
2022/10/30 01:23:29;;;;;;;43.83;38.35;;;25.50;90.80;;;;;;1846829;75;21167;-83
2022/10/30 01:26:05;;;;;;;43.50;36.65;;;25.70;89.50;;;;;;1868233;76;21155;-82
2022/10/30 01:28:42;;;;;;;44.73;37.83;;;25.80;89.10;;;;;;1900500;75;21203;-87
2022/10/30 01:31:35;;;;;;;49.67;39.58;;;25.80;88.70;;;;;;1854792;77;21575;-83
2022/10/30 01:34:11;;;;;;;44.53;38.45;;;25.90;88.80;;;;;;1855746;75;21156;-82
2022/10/30 01:36:47;;;;;;;46.03;38.53;;;25.90;87.60;;;;;;1871588;76;21572;-82
2022/10/30 01:39:28;;;;;;;50.12;41.05;;;26.00;87.70;;;;;;1893529;74;21608;-83
2022/10/30 01:41:59;;;;;;;50.03;41.18;;;26.00;87.50;;;;;;1891971;75;21386;-82
2022/10/30 01:44:34;;;;;;;43.42;37.03;;;26.10;87.50;;;;;;1852428;77;21077;-81
2022/10/30 01:47:13;;;;;;;44.23;37.33;;;26.10;86.20;;;;;;1862866;75;21143;-81
2022/10/30 01:49:46;;;;;;;45.75;37.17;;;26.20;86.50;;;;;;1845277;75;21152;-82
2022/10/30 01:52:28;;;;;;;44.55;36.13;;;26.20;85.50;;;;;;1876093;75;21068;-81
2022/10/30 01:55:09;;;;;;;46.75;36.08;;;26.20;85.30;;;;;;1900179;74;21537;-82
2022/10/30 01:58:03;;;;;;;44.03;35.98;;;26.20;84.80;;;;;;1856845;74;21139;-82
2022/10/30 02:00:38;;;;;;;45.23;35.28;;;26.30;84.50;;;;;;1833935;75;21247;-83
2022/10/30 02:03:09;;;;;;;49.20;35.88;;;26.30;84.50;;;;;;1829880;77;21130;-82
2022/10/30 02:05:43;;;;;;;42.70;35.90;;;26.40;84.30;;;;;;1833165;76;21079;-82
2022/10/30 02:08:14;;;;;;;45.03;36.50;;;26.40;85.00;;;;;;1849657;75;21111;-83
2022/10/30 02:10:47;;;;;;;42.13;34.78;;;26.40;85.00;;;;;;1835420;76;21082;-83
2022/10/30 02:13:18;;;;;;;42.40;36.00;;;26.50;86.20;;;;;;1830898;77;21091;-84
2022/10/30 02:15:50;;;;;;;43.02;35.55;;;26.50;84.50;;;;;;1854383;75;21138;-83
2022/10/30 02:18:21;;;;;;;44.85;35.85;;;26.60;84.30;;;;;;1841428;76;21103;-83
2022/10/30 02:20:52;;;;;;;47.05;37.28;;;26.60;84.30;;;;;;1833281;76;21146;-82
2022/10/30 02:23:24;;;;;;;42.40;34.30;;;26.70;84.50;;;;;;1833141;77;21539;-82
2022/10/30 02:25:55;;;;;;;41.40;34.10;;;26.70;84.20;;;;;;1841864;76;21174;-83
2022/10/30 02:28:26;;;;;;;40.10;35.38;;;26.80;84.40;;;;;;1822039;77;21212;-82
2022/10/30 02:30:57;;;;;;;41.28;34.63;;;26.90;83.70;;;;;;1829783;75;21186;-84
2022/10/30 02:33:28;;;;;;;40.67;34.43;;;27.00;83.60;;;;;;1837603;76;21154;-82
2022/10/30 02:36:00;;;;;;;39.70;33.75;;;27.10;83.70;;;;;;1843820;76;21157;-83
2022/10/30 02:38:31;;;;;;;41.33;33.55;;;27.20;83.20;;;;;;1843126;77;21075;-74
2022/10/30 02:41:02;;;;;;;38.48;33.02;;;27.30;82.50;;;;;;1837268;76;21216;-73
2022/10/30 02:43:33;;;;;;;39.33;33.38;;;27.40;81.90;;;;;;1821015;77;21613;-74
2022/10/30 02:46:04;;;;;;;37.90;32.40;;;27.50;81.40;;;;;;1836013;76;21190;-73
2022/10/30 02:48:35;;;;;;;39.67;32.90;;;27.60;80.90;;;;;;1834095;77;21161;-73
2022/10/30 02:51:07;;;;;;;36.77;32.55;;;27.70;80.60;;;;;;1830840;76;21091;-74
2022/10/30 02:53:38;;;;;;;36.33;32.42;;;27.70;79.60;;;;;;1824727;77;21248;-74
2022/10/30 02:56:13;;;;;;;38.70;32.75;;;27.80;78.90;;;;;;1829659;75;21131;-71
2022/10/30 02:58:46;;;;;;;37.13;33.13;;;27.80;79.60;;;;;;1891665;75;21605;-72
2022/10/30 03:01:19;;;;;;;39.53;33.02;;;27.80;79.30;;;;;;1861211;75;21441;-73
2022/10/30 03:03:51;;;;;;;37.67;33.67;;;27.90;80.20;;;;;;1839915;77;21750;-73
2022/10/30 03:06:22;;;;;;;38.95;33.00;;;28.00;80.20;;;;;;1835489;75;21118;-74
2022/10/30 03:08:52;;;;;;;36.93;32.93;;;28.00;80.20;;;;;;1857608;76;21111;-73
2022/10/30 03:11:24;;;;;;;39.35;33.83;;;28.10;80.30;;;;;;1882388;74;21228;-73
2022/10/30 03:13:55;;;;;;;37.13;32.10;;;28.20;80.30;;;;;;1836096;77;21689;-75
2022/10/30 03:16:32;;;;;;;36.73;31.30;;;28.30;79.80;;;;;;1855893;77;21147;-74
2022/10/30 03:19:09;;;;;;;37.63;33.63;;;28.30;79.50;;;;;;1809783;78;21125;-75
2022/10/30 03:21:44;;;;;;;39.05;32.58;;;27.90;89.90;;;;;;1882708;75;21161;-72
2022/10/30 03:24:15;;;;;;;35.65;31.75;;;28.50;79.50;;;;;;1901311;75;21552;-74
2022/10/30 03:26:46;;;;;;;37.67;30.85;;;28.60;78.90;;;;;;1887652;75;21477;-74
2022/10/30 03:29:17;;;;;;;36.10;31.25;;;28.60;77.80;;;;;;1838126;77;21132;-74
2022/10/30 03:31:48;;;;;;;33.70;29.52;;;28.70;78.30;;;;;;1821163;78;21096;-74
2022/10/30 03:34:19;;;;;;;35.33;31.60;;;28.70;76.80;;;;;;1839820;78;21074;-73
2022/10/30 03:36:50;;;;;;;34.60;30.88;;;28.80;77.20;;;;;;1892850;75;21148;-74
2022/10/30 03:39:21;;;;;;;36.65;31.80;;;28.90;76.50;;;;;;1905456;75;21127;-74
2022/10/30 03:41:52;;;;;;;35.45;31.15;;;29.00;76.70;;;;;;1852343;77;21160;-72
2022/10/30 03:44:23;;;;;;;34.50;30.15;;;29.00;77.10;;;;;;1867915;75;21605;-74
2022/10/30 03:46:55;;;;;;;35.78;31.45;;;29.10;76.00;;;;;;1883447;75;21088;-74
2022/10/30 03:49:26;;;;;;;34.25;29.07;;;29.20;75.90;;;;;;1901458;75;21158;-73
2022/10/30 03:51:57;;;;;;;36.93;29.87;;;29.20;74.90;;;;;;1897282;74;21194;-74
2022/10/30 03:54:28;;;;;;;37.38;28.98;;;29.40;74.40;;;;;;1891885;74;21205;-74
2022/10/30 03:56:59;;;;;;;34.33;29.42;;;29.40;74.20;;;;;;1915178;75;21164;-75
2022/10/30 03:59:29;;;;;;;33.75;30.00;;;29.50;73.20;;;;;;1875071;76;21093;-74
2022/10/30 04:02:00;;;;;;;33.35;28.27;;;29.50;73.40;;;;;;1867384;76;21611;-74
2022/10/30 04:04:32;;;;;;;32.05;28.70;;;29.50;73.50;;;;;;1851328;76;21197;-74
2022/10/30 04:07:02;;;;;;;32.15;27.77;;;29.50;73.40;;;;;;1846728;76;21652;-73
2022/10/30 04:09:34;;;;;;;30.72;27.37;;;29.60;72.30;;;;;;1851541;76;21195;-73
2022/10/30 04:12:05;;;;;;;32.38;27.25;;;29.60;73.00;;;;;;1866195;76;21147;-74
2022/10/30 04:14:37;;;;;;;31.95;28.45;;;29.70;72.40;;;;;;1873549;76;21071;-73
2022/10/30 04:17:08;;;;;;;34.48;29.25;;;29.70;72.80;;;;;;1842591;76;21183;-76
2022/10/30 04:19:38;;;;;;;34.45;28.75;;;29.70;72.30;;;;;;1861008;76;21602;-74
2022/10/30 04:22:09;;;;;;;30.97;26.93;;;29.80;72.20;;;;;;1847041;76;21692;-75
2022/10/30 04:24:40;;;;;;;30.17;26.87;;;29.80;73.20;;;;;;1862636;76;21163;-76
2022/10/30 04:27:12;;;;;;;31.73;28.10;;;29.80;73.20;;;;;;1863234;76;21120;-75
2022/10/30 04:29:43;;;;;;;30.77;27.52;;;29.80;72.50;;;;;;1845266;76;21162;-74
2022/10/30 04:32:14;;;;;;;30.17;27.00;;;29.90;72.90;;;;;;1854561;75;21077;-73
2022/10/30 04:34:45;;;;;;;31.15;27.73;;;29.90;71.20;;;;;;1861894;75;21119;-72
2022/10/30 04:37:16;;;;;;;29.95;26.60;;;29.90;71.90;;;;;;1873365;76;21213;-74
2022/10/30 04:39:48;;;;;;;29.72;26.57;;;29.90;72.20;;;;;;1875792;75;21588;-73
2022/10/30 04:42:21;;;;;;;31.45;26.48;;;29.90;71.60;;;;;;1874716;76;21077;-74
2022/10/30 04:44:53;;;;;;;29.95;26.42;;;29.90;72.00;;;;;;1847047;76;22262;-73
2022/10/30 04:47:24;;;;;;;29.02;25.30;;;29.90;70.50;;;;;;1860955;75;21186;-72
2022/10/30 04:49:58;;;;;;;30.95;26.35;;;29.90;71.40;;;;;;1869399;76;21306;-73
2022/10/30 04:52:30;;;;;;;29.02;25.97;;;29.90;71.90;;;;;;1863225;76;21178;-74
2022/10/30 04:55:00;;;;;;;28.67;25.15;;;29.90;70.60;;;;;;1858176;76;21052;-72
2022/10/30 04:57:32;;;;;;;28.90;25.72;;;30.00;69.70;;;;;;1872659;76;21120;-73
2022/10/30 05:00:05;;;;;;;30.72;25.48;;;30.00;69.40;;;;;;1862188;75;21170;-74
2022/10/30 05:02:38;;;;;;;27.52;24.18;;;30.10;69.80;;;;;;1851359;76;21119;-75
2022/10/30 05:05:14;;;;;;;29.53;25.70;;;30.10;69.80;;;;;;1854221;76;21057;-74
2022/10/30 05:07:45;;;;;;;29.63;24.60;;;30.20;70.20;;;;;;1863494;75;21119;-75
2022/10/30 05:10:21;;;;;;;27.25;24.32;;;30.30;67.60;;;;;;1863868;76;21453;-74
2022/10/30 05:12:59;;;;;;;27.95;24.25;;;30.50;66.70;;;;;;1863198;75;21222;-73
2022/10/30 05:15:32;;;;;;;26.48;23.55;;;30.50;66.00;;;;;;1864965;76;21612;-74
2022/10/30 05:18:02;;;;;;;31.15;24.15;;;30.60;67.10;;;;;;1873469;76;21069;-73
2022/10/30 05:20:33;;;;;;;33.73;25.92;;;30.70;65.20;;;;;;1872667;76;21126;-74
2022/10/30 05:23:07;;;;;;;32.48;26.42;;;30.80;65.50;;;;;;1862158;75;21144;-74
2022/10/30 05:25:41;;;;;;;29.32;24.90;;;30.80;65.00;;;;;;1871291;75;21211;-74
2022/10/30 05:28:13;;;;;;;29.95;23.92;;;30.90;64.60;;;;;;1845927;76;21221;-73
2022/10/30 05:30:44;;;;;;;28.52;25.10;;;31.00;64.00;;;;;;1863122;76;21233;-73
2022/10/30 05:33:16;;;;;;;27.55;24.47;;;31.00;63.70;;;;;;1861606;76;21236;-73
2022/10/30 05:35:52;;;;;;;29.80;24.32;;;31.00;63.80;;;;;;1868774;76;21641;-73
2022/10/30 05:38:22;;;;;;;28.17;25.00;;;31.00;64.20;;;;;;1866332;76;21524;-72
2022/10/30 05:40:53;;;;;;;29.57;25.40;;;31.00;63.70;;;;;;1872359;76;21225;-72
2022/10/30 05:43:25;;;;;;;26.25;23.42;;;31.10;64.20;;;;;;1845433;76;21096;-73
2022/10/30 05:45:56;;;;;;;28.07;23.27;;;31.10;63.50;;;;;;1865217;76;21198;-74
2022/10/30 05:48:27;;;;;;;28.32;24.40;;;31.10;62.60;;;;;;1863486;76;21124;-72
2022/10/30 05:50:58;;;;;;;27.73;23.75;;;31.10;62.30;;;;;;1873931;76;21160;-73
2022/10/30 05:53:29;;;;;;;26.85;23.95;;;31.20;63.10;;;;;;1869978;75;21128;-74
2022/10/30 05:56:03;;;;;;;27.93;24.65;;;31.20;62.80;;;;;;1865598;76;21209;-74
2022/10/30 05:58:35;;;;;;;26.60;23.25;;;31.20;63.70;;;;;;1865994;75;21654;-73
2022/10/30 06:01:09;;;;;;;29.05;24.52;;;31.20;62.20;;;;;;1842032;76;21152;-74
2022/10/30 06:03:40;;;;;;;31.65;24.95;;;31.30;62.20;;;;;;1846503;77;21229;-74
2022/10/30 06:06:13;;;;;;;27.32;24.27;;;31.30;62.50;;;;;;1866050;76;21178;-73
2022/10/30 06:08:50;;;;;;;29.70;24.77;;;31.40;62.00;;;;;;1899150;75;21638;-74
2022/10/30 06:11:29;;;;;;;29.93;25.87;;;31.40;61.30;;;;;;1854958;77;22113;-73
2022/10/30 06:13:59;;;;;;;29.57;24.77;;;31.40;61.60;;;;;;1859739;77;21906;-72
2022/10/30 06:16:30;;;;;;;27.90;24.70;;;31.40;61.10;;;;;;1827119;77;21089;-74
2022/10/30 06:19:06;;;;;;;26.80;24.10;;;31.40;60.80;;;;;;1845403;77;21223;-74
2022/10/30 06:21:41;;;;;;;26.65;23.77;;;31.40;60.40;;;;;;1900667;75;21158;-73
2022/10/30 06:24:20;;;;;;;29.30;24.30;;;31.40;60.80;;;;;;1843863;77;21084;-73
2022/10/30 06:26:57;;;;;;;27.10;24.15;;;31.40;61.80;;;;;;1861169;77;21670;-74
2022/10/30 06:29:31;;;;;;;28.38;24.05;;;31.40;62.00;;;;;;1874117;75;21110;-74
2022/10/30 06:32:05;;;;;;;29.05;25.27;;;31.40;60.80;;;;;;1903045;75;21424;-75
2022/10/30 06:34:41;;;;;;;27.98;24.40;;;31.30;61.60;;;;;;1856944;75;21119;-74
2022/10/30 06:37:13;;;;;;;26.17;23.10;;;31.40;61.50;;;;;;1841569;77;21081;-74
2022/10/30 06:39:44;;;;;;;30.35;25.48;;;31.40;61.30;;;;;;1806692;78;21142;-74
2022/10/30 06:42:34;;;;;;;27.17;23.85;;;31.40;62.10;;;;;;1852906;77;21222;-74
2022/10/30 06:45:06;;;;;;;29.72;24.47;;;31.40;62.30;;;;;;1892603;73;21072;-74
2022/10/30 06:47:37;;;;;;;28.92;24.77;;;31.50;61.70;;;;;;1885869;74;21258;-74
2022/10/30 06:50:11;;;;;;;28.00;25.10;;;31.50;62.00;;;;;;1899268;75;21216;-74
2022/10/30 06:52:42;;;;;;;30.85;24.43;;;31.50;61.30;;;;;;1868978;75;21086;-74
2022/10/30 06:55:14;;;;;;;28.50;23.67;;;31.50;61.60;;;;;;1878040;75;21175;-74
2022/10/30 06:57:45;;;;;;;28.38;25.15;;;31.40;60.80;;;;;;1869859;76;21077;-74
2022/10/30 07:00:16;;;;;;;26.90;24.00;;;31.40;61.10;;;;;;1894007;76;21545;-75
2022/10/30 07:02:56;;;;;;;29.35;24.65;;;31.40;61.10;;;;;;1882096;75;21120;-74
2022/10/30 07:05:27;;;;;;;29.20;24.87;;;31.40;61.30;;;;;;1885353;75;21130;-75
2022/10/30 07:08:03;;;;;;;29.60;25.62;;;31.40;61.30;;;;;;1870919;75;21227;-73
2022/10/30 07:10:39;;;;;;;29.37;25.57;;;31.40;61.10;;;;;;1883489;75;21159;-72
2022/10/30 07:13:11;;;;;;;31.40;26.12;;;31.40;61.60;;;;;;1887230;76;21151;-72
2022/10/30 07:15:44;;;;;;;27.75;24.72;;;31.40;61.60;;;;;;1887653;75;21609;-74
2022/10/30 07:18:15;;;;;;;28.73;25.68;;;31.40;61.10;;;;;;1887556;76;21194;-73
2022/10/30 07:20:52;;;;;;;29.30;24.87;;;31.40;60.80;;;;;;1872078;76;21162;-74
2022/10/30 07:23:25;;;;;;;27.70;24.80;;;31.40;61.20;;;;;;1872975;75;21592;-75
2022/10/30 07:25:56;;;;;;;29.12;24.12;;;31.40;61.60;;;;;;1882784;75;21285;-75
2022/10/30 07:28:30;;;;;;;28.05;24.30;;;31.30;61.40;;;;;;1879774;75;21158;-74
2022/10/30 07:31:01;;;;;;;29.15;24.55;;;31.30;61.30;;;;;;1882935;75;21135;-73
2022/10/30 07:33:33;;;;;;;27.77;24.07;;;31.30;61.80;;;;;;1888848;76;21866;-73
2022/10/30 07:36:05;;;;;;;26.35;23.42;;;31.30;61.60;;;;;;1877941;76;21492;-75
2022/10/30 07:38:36;;;;;;;27.40;23.62;;;31.20;61.50;;;;;;1829683;78;21686;-75
2022/10/30 07:41:09;;;;;;;25.80;23.00;;;31.20;61.70;;;;;;1842163;76;21624;-74
2022/10/30 07:43:41;;;;;;;27.52;24.65;;;31.20;61.80;;;;;;1843344;76;21167;-73
2022/10/30 07:46:13;;;;;;;27.55;24.10;;;31.10;62.40;;;;;;1907936;75;21064;-72
2022/10/30 07:48:44;;;;;;;27.17;24.35;;;31.10;62.50;;;;;;1903280;74;21197;-75
2022/10/30 07:51:15;;;;;;;30.27;24.67;;;31.10;62.40;;;;;;1904650;75;21231;-75
2022/10/30 07:53:46;;;;;;;26.40;23.65;;;31.10;62.20;;;;;;1894828;73;21209;-74
2022/10/30 07:56:17;;;;;;;28.07;24.32;;;31.10;62.20;;;;;;1906766;75;21252;-74
2022/10/30 07:58:48;;;;;;;27.05;24.25;;;31.00;62.50;;;;;;1910028;75;21155;-73
2022/10/30 08:01:19;;;;;;;29.00;24.60;;;31.00;63.40;;;;;;1909112;73;21283;-74
2022/10/30 08:03:51;;;;;;;27.20;23.32;;;30.90;63.20;;;;;;1898422;73;21602;-74
2022/10/30 08:06:22;;;;;;;28.07;23.55;;;30.90;63.10;;;;;;1913041;75;21064;-74
2022/10/30 08:08:57;;;;;;;30.45;25.10;;;30.90;63.60;;;;;;1912157;73;21124;-73
2022/10/30 08:11:29;;;;;;;27.87;24.30;;;30.90;63.90;;;;;;1905671;75;21599;-74
2022/10/30 08:14:01;;;;;;;27.05;24.15;;;30.90;63.90;;;;;;1895004;73;21087;-75
2022/10/30 08:16:32;;;;;;;26.48;23.22;;;30.90;63.80;;;;;;1888451;74;21182;-74
2022/10/30 08:19:04;;;;;;;27.37;24.40;;;30.90;63.60;;;;;;1889271;75;21060;-75
2022/10/30 08:21:39;;;;;;;27.02;24.15;;;30.90;64.10;;;;;;1914211;74;21186;-72
2022/10/30 08:24:10;;;;;;;30.40;24.20;;;30.90;64.10;;;;;;1872709;75;21057;-74
2022/10/30 08:26:41;;;;;;;30.50;24.80;;;30.90;64.10;;;;;;1881355;76;21116;-74
2022/10/30 08:29:14;;;;;;;26.07;23.47;;;30.90;64.10;;;;;;1863311;76;21169;-75
2022/10/30 08:31:46;;;;;;;28.57;24.90;;;30.90;64.30;;;;;;1877419;76;21159;-74
2022/10/30 08:34:18;;;;;;;29.98;25.12;;;30.90;64.30;;;;;;1870220;75;21653;-74
2022/10/30 08:36:52;;;;;;;28.35;25.32;;;30.90;63.40;;;;;;1893692;75;21246;-75
2022/10/30 08:39:23;;;;;;;27.77;24.77;;;30.90;63.60;;;;;;1880750;75;21123;-74
2022/10/30 08:41:54;;;;;;;32.25;25.48;;;30.90;64.00;;;;;;1875313;76;21112;-73
2022/10/30 08:44:32;;;;;;;;;;;30.90;64.50;;;;;;1878181;76;21180;-72
2022/10/30 08:47:08;;;;;;;;;;;30.90;64.80;;;;;;1886448;75;20158;-75
2022/10/30 08:49:39;;;;;;;28.92;25.77;;;30.90;65.10;;;;;;1889941;75;20180;-73
2022/10/30 08:52:11;;;;;;;32.08;25.45;;;30.90;64.10;;;;;;1878568;75;21065;-73
2022/10/30 08:54:44;;;;;;;31.48;25.57;;;30.80;64.40;;;;;;1881547;75;21228;-73
2022/10/30 08:57:18;;;;;;;28.45;25.55;;;30.80;64.60;;;;;;1877817;75;21162;-74
2022/10/30 08:59:49;;;;;;;31.30;25.90;;;30.80;64.10;;;;;;1879823;74;21176;-73
2022/10/30 09:02:20;;;;;;;28.55;25.65;;;30.70;64.30;;;;;;1882407;75;21253;-75
2022/10/30 09:04:52;;;;;;;32.78;27.13;;;30.60;64.90;;;;;;1884830;75;21125;-73
2022/10/30 09:07:23;;;;;;;31.33;26.75;;;30.60;64.90;;;;;;1884443;75;21138;-73
2022/10/30 09:09:57;;;;;;;32.67;27.22;;;30.60;65.20;;;;;;1882207;75;21197;-74
2022/10/30 09:12:28;;;;;;;32.98;26.75;;;30.60;65.50;;;;;;1887717;75;21177;-74
2022/10/30 09:14:59;;;;;;;28.47;25.37;;;30.50;65.40;;;;;;1885931;75;21430;-74
2022/10/30 09:17:30;;;;;;;30.80;26.62;;;30.40;65.40;;;;;;1889286;75;21065;-73
2022/10/30 09:20:03;;;;;;;29.57;26.42;;;30.40;65.50;;;;;;1879679;75;21141;-74
2022/10/30 09:22:34;;;;;;;32.98;28.38;;;30.40;66.20;;;;;;1887574;75;21631;-74
2022/10/30 09:25:06;;;;;;;35.98;28.42;;;30.40;66.40;;;;;;1885293;74;21162;-74
2022/10/30 09:27:40;;;;;;;33.48;27.30;;;30.30;66.40;;;;;;1886315;75;21119;-75
2022/10/30 09:30:11;;;;;;;33.50;27.73;;;30.30;66.80;;;;;;1884819;75;21717;-74
2022/10/30 09:32:47;;;;;;;31.00;27.05;;;30.30;66.40;;;;;;1885867;75;21068;-73
2022/10/30 09:35:16;;;;;;;34.38;28.27;;;30.30;66.60;;;;;;1891758;75;21174;-74
2022/10/30 09:37:47;;;;;;;36.35;30.92;;;30.30;66.90;;;;;;1894494;75;21174;-73
2022/10/30 09:40:39;;;;;;;32.48;27.87;;;30.20;67.80;;;;;;1897444;75;21175;-74
2022/10/30 09:43:23;;;;;;;34.85;28.40;;;30.20;67.20;;;;;;1879463;75;21123;-75
2022/10/30 09:46:24;;;;;;;36.30;29.98;;;30.20;67.40;;;;;;1888044;75;21116;-74
2022/10/30 09:49:16;;;;;;;34.55;30.57;;;30.20;67.90;;;;;;1772642;80;21151;-74
2022/10/30 09:52:18;;;;;;;35.63;29.48;;;30.10;68.20;;;;;;1804898;78;21146;-74
2022/10/30 09:55:03;;;;;;;35.65;30.30;;;30.10;68.60;;;;;;1859617;75;21233;-74
2022/10/30 09:57:43;;;;;;;39.25;30.25;;;30.00;68.60;;;;;;1891053;75;21221;-74
2022/10/30 10:00:15;;;;;;;36.70;30.70;;;30.00;68.90;;;;;;1893967;75;21120;-73
2022/10/30 10:03:18;;;;;;;36.75;30.10;;;29.90;69.20;;;;;;1895070;73;21170;-73
2022/10/30 10:06:02;;;;;;;;;;;29.90;69.50;;;;;;1901387;74;21076;-74
2022/10/30 10:08:41;;;;;;;34.27;30.35;;;29.90;69.50;;;;;;1884515;74;20270;-72
2022/10/30 10:11:17;;;;;;;35.20;31.40;;;29.80;70.00;;;;;;1900027;75;21198;-74
2022/10/30 10:14:00;;;;;;;36.10;31.95;;;29.80;70.40;;;;;;1882544;75;21143;-74
2022/10/30 10:16:35;;;;;;;38.60;32.85;;;29.80;70.60;;;;;;1885295;75;21150;-74
2022/10/30 10:19:42;;;;;;;37.42;31.75;;;29.80;70.90;;;;;;1885018;75;21213;-74
2022/10/30 10:22:24;;;;;;;38.70;30.72;;;29.70;70.90;;;;;;1892885;74;21645;-74
2022/10/30 10:24:56;;;;;;;35.33;31.40;;;29.70;70.90;;;;;;1900066;73;21159;-74
2022/10/30 10:27:32;;;;;;;40.30;31.50;;;29.70;71.00;;;;;;1890747;74;21143;-74
2022/10/30 10:30:08;;;;;;;40.40;31.70;;;29.70;71.30;;;;;;1890050;75;21066;-74
2022/10/30 10:32:50;;;;;;;38.17;31.33;;;29.60;71.50;;;;;;1896119;75;21069;-76
2022/10/30 10:35:46;;;;;;;38.05;32.98;;;29.60;71.50;;;;;;1881114;74;21151;-74
2022/10/30 10:38:38;;;;;;;46.53;38.20;;;29.60;71.50;;;;;;1889963;74;21119;-74
2022/10/30 10:41:22;;;;;;;36.63;32.13;;;29.50;71.60;;;;;;1886132;74;21135;-74
2022/10/30 10:43:58;;;;;;;42.13;31.62;;;29.50;71.80;;;;;;1895891;75;21683;-73
2022/10/30 10:46:31;;;;;;;39.25;32.35;;;29.50;71.60;;;;;;1899243;75;21167;-74
2022/10/30 10:49:31;;;;;;;39.38;32.00;;;29.40;71.70;;;;;;1904298;75;21163;-74
2022/10/30 10:52:12;;;;;;;39.73;32.73;;;29.40;71.90;;;;;;1892729;75;21105;-74
2022/10/30 10:54:45;;;;;;;36.05;32.25;;;29.40;72.20;;;;;;1899783;75;21115;-75
2022/10/30 10:57:25;;;;;;;38.92;34.03;;;29.40;72.40;;;;;;1898516;75;21656;-73
2022/10/30 11:00:08;;;;;;;41.10;33.45;;;29.40;72.90;;;;;;1883624;74;21670;-74
2022/10/30 11:02:42;;;;;;;37.67;32.98;;;29.30;73.00;;;;;;1897227;75;21155;-73
2022/10/30 11:05:39;;;;;;;48.65;35.75;;;29.30;73.30;;;;;;1870304;75;21108;-73
2022/10/30 11:08:21;;;;;;;47.60;35.03;;;29.30;73.50;;;;;;1896079;75;21249;-72
2022/10/30 11:10:59;;;;;;;43.73;35.45;;;29.30;73.70;;;;;;1895103;74;21144;-73
2022/10/30 11:13:33;;;;;;;42.43;35.48;;;29.20;73.70;;;;;;1899415;75;21166;-73
2022/10/30 11:16:22;;;;;;;43.78;35.65;;;29.20;74.50;;;;;;1884335;75;21619;-72
2022/10/30 11:18:55;;;;;;;40.12;34.25;;;29.20;73.60;;;;;;1841505;77;21610;-73
2022/10/30 11:21:28;;;;;;;38.15;33.15;;;29.20;73.60;;;;;;1889816;75;21068;-73
2022/10/30 11:23:59;;;;;;;40.73;36.05;;;29.10;73.70;;;;;;1897653;73;21138;-73
2022/10/30 11:26:32;;;;;;;40.38;35.25;;;29.10;74.00;;;;;;1888564;74;21570;-73
2022/10/30 11:29:15;;;;;;;40.65;35.88;;;29.10;74.30;;;;;;1893380;73;21133;-74
2022/10/30 11:31:46;;;;;;;43.73;35.40;;;29.00;74.60;;;;;;1896079;73;21198;-73
2022/10/30 11:34:26;;;;;;;42.78;36.28;;;29.00;74.70;;;;;;1891486;75;21127;-75
2022/10/30 11:36:57;;;;;;;41.53;36.40;;;29.00;74.90;;;;;;1897636;75;21713;-74
2022/10/30 11:39:30;;;;;;;42.53;36.10;;;29.00;75.00;;;;;;1881434;75;21145;-73
2022/10/30 11:42:15;;;;;;;45.30;37.58;;;28.90;75.30;;;;;;1895927;75;21639;-73
2022/10/30 11:44:51;;;;;;;46.60;37.95;;;28.90;75.50;;;;;;1878131;75;21245;-72
2022/10/30 11:47:25;;;;;;;49.80;38.53;;;28.90;75.80;;;;;;1892293;73;21154;-75
2022/10/30 11:49:58;;;;;;;49.53;38.45;;;28.90;76.00;;;;;;1878468;75;21675;-74
2022/10/30 11:52:40;;;;;;;48.20;37.60;;;28.90;76.50;;;;;;1880973;74;21154;-73
2022/10/30 11:55:22;;;;;;;44.20;38.73;;;28.80;76.50;;;;;;1890273;73;21534;-75
2022/10/30 11:57:58;;;;;;;48.10;39.80;;;28.80;77.00;;;;;;1883894;75;21217;-74
2022/10/30 12:00:35;;;;;;;49.25;39.80;;;28.80;77.30;;;;;;1890839;75;21129;-74
2022/10/30 12:03:07;;;;;;;50.00;40.52;;;28.80;77.60;;;;;;1897206;75;21092;-74
2022/10/30 12:05:40;;;;;;;50.85;41.88;;;28.80;77.80;;;;;;1881530;75;21257;-73
2022/10/30 12:08:18;;;;;;;55.17;43.83;;;28.80;77.90;;;;;;1887693;74;21158;-73
2022/10/30 12:11:01;;;;;;;60.25;44.67;;;28.80;78.20;;;;;;1874897;75;21100;-73
2022/10/30 12:13:40;;;;;;;52.75;42.93;;;28.80;78.40;;;;;;1896300;73;21527;-73
2022/10/30 12:16:16;;;;;;;51.08;40.48;;;28.70;77.90;;;;;;1879676;73;21085;-73
2022/10/30 12:18:59;;;;;;;51.10;42.05;;;28.70;78.10;;;;;;1876066;73;21168;-73
2022/10/30 12:21:39;;;;;;;52.15;40.65;;;28.70;77.90;;;;;;1887148;75;21150;-73
2022/10/30 12:24:21;;;;;;;52.43;40.50;;;28.70;78.50;;;;;;1833943;76;21081;-74
2022/10/30 12:26:55;;;;;;;48.15;39.88;;;28.70;78.50;;;;;;1893358;73;21558;-75
2022/10/30 12:29:28;;;;;;;45.75;39.50;;;28.60;78.50;;;;;;1900170;74;21654;-73
2022/10/30 12:32:03;;;;;;;46.13;39.40;;;28.60;79.20;;;;;;1896738;73;21133;-75
2022/10/30 12:34:37;;;;;;;45.58;40.20;;;28.60;80.30;;;;;;1885427;73;21144;-73
2022/10/30 12:37:13;;;;;;;46.05;38.73;;;28.60;79.80;;;;;;1899226;75;21131;-83
2022/10/30 12:39:53;;;;;;;;;;;28.60;79.70;;;;;;1893458;75;21586;-81
2022/10/30 12:42:26;;;;;;;47.23;39.18;;;28.60;78.60;;;;;;1893263;75;20177;-81
2022/10/30 12:45:08;;;;;;;46.68;40.30;;;28.60;79.70;;;;;;1837791;77;21186;-80
2022/10/30 12:47:45;;;;;;;49.42;40.45;;;28.60;79.70;;;;;;1891952;75;21225;-83
2022/10/30 12:50:21;;;;;;;49.63;41.20;;;28.60;80.10;;;;;;1865843;75;21169;-82
2022/10/30 12:53:23;;;;;;;52.33;41.28;;;28.60;79.90;;;;;;1884145;74;21148;-81
2022/10/30 12:55:52;;;;;;;48.87;41.40;;;28.60;79.90;;;;;;1889193;75;21175;-80
2022/10/30 12:58:38;;;;;;;53.05;41.85;;;28.60;80.00;;;;;;1877675;75;21285;-83
2022/10/30 13:01:27;;;;;;;51.70;40.93;;;28.60;79.90;;;;;;1882828;75;21635;-80
2022/10/30 13:04:07;;;;;;;46.18;40.50;;;28.60;79.80;;;;;;1858034;75;21056;-81
2022/10/30 13:06:45;;;;;;;48.28;40.00;;;28.60;79.60;;;;;;1887783;75;21248;-82